Aeroporto :
LOGIN :

Iscrizione | Disclaimer

   EN    FR    IT 

 










Sommario :    VFR   VFR Marginale   IFR   IFR Intensivo   IFR Molto Intensivo
Visibilità : 
Base nubi : 
>= 8 km
>= 3000ft
5 / 8 km
1000 / 3000 ft
1500m / 5 km
500 / 1000 ft
800 / 1500m
200 / 500 ft
< 800m
< 200 ft
Simboli :   Temporali  Nebbia  Neve Forte  Precipitazioni Forti  Vento > 20 kt
SIGMETs :   Varie  Temporali  Ghiacco  Turbolenza  Onda orograficha  Ceneri Vulcaniche







- Altitudine del aeroporto : 74 ft
- Codice IATA : EIN


EHEH - Eindhoven

ULTIMO METAR :
  • 222125Z AUTO 08009KT 050V110 9999 SCT270 18/02 Q1004 BLU 11008G18KT CAVOK

METARs OBSOLETI :
  • 222055Z AUTO 08009KT 040V110 9999 NCD 19/03 Q1004 BLU 11008G18KT CAVOK
  • 222025Z AUTO 08010KT 020V120 9999 NCD 20/02 Q1004 BLU 11008G18KT CAVOK
  • 221955Z AUTO 08011KT 050V120 9999 SCT280 SCT350 20/02 Q1004 BLU 11008G18KT CAVOK
  • 221925Z AUTO 07011KT 030V110 9999 NCD 21/03 Q1004 BLU 11008G18KT CAVOK
  • 221855Z AUTO 07010KT 040V110 9999 NCD 22/03 Q1004 BLU 11008G18KT CAVOK

TAF TAF EHEH
Valido dal 22 a 18 ore il 24 a 00 ore UTC


221737Z 2218/2324 08010KT CAVOK
BECMG 2307/2309 09012G22KT
BECMG 2317/2319 10006KT
Nessun NOTAM noto per questo aeroporto.



MetMap, La meteo Aeronautica in un colpo d'occhio ! - Copyright ORBIFLY Dicembre 2007 - Disclaimer

ORBIFLY MET'MAP TEAM :

Programmazione e sviluppo : Alexandra Zaïnal
Concezione e sviluppo : Baudouin d'Aumeries
Co-Programmazione e sviluppo : Marc-Olivier Méhu
Supporto tecnico e logistico : Manuel Goepfert
Aiuto per la traduzione : Arnaldo La Scala

Contatto : metmap@orbifly.com




FONTI E CREDITI :

   NOAA